sensor_id;sensor_type;location;lat;lon;timestamp;pressure;altitude;pressure_sealevel;temperature;humidity
62864;BME280;48954;59.950;11.014;2023-07-29T00:00:57;98670.98;;;14.12;77.13
62864;BME280;48954;59.950;11.014;2023-07-29T00:03:26;98670.15;;;14.15;77.12
62864;BME280;48954;59.950;11.014;2023-07-29T00:05:52;98673.28;;;14.17;77.19
62864;BME280;48954;59.950;11.014;2023-07-29T00:08:18;98672.16;;;14.19;77.31
62864;BME280;48954;59.950;11.014;2023-07-29T00:10:44;98672.23;;;14.21;77.38
62864;BME280;48954;59.950;11.014;2023-07-29T00:13:10;98671.98;;;14.22;77.35
62864;BME280;48954;59.950;11.014;2023-07-29T00:15:36;98671.89;;;14.25;77.46
62864;BME280;48954;59.950;11.014;2023-07-29T00:18:02;98670.38;;;14.26;77.49
62864;BME280;48954;59.950;11.014;2023-07-29T00:20:29;98672.51;;;14.27;77.55
62864;BME280;48954;59.950;11.014;2023-07-29T00:22:56;98670.22;;;14.27;77.50
62864;BME280;48954;59.950;11.014;2023-07-29T00:25:22;98668.47;;;14.27;77.52
62864;BME280;48954;59.950;11.014;2023-07-29T00:27:47;98669.18;;;14.27;77.53
62864;BME280;48954;59.950;11.014;2023-07-29T00:30:13;98666.27;;;14.27;77.61
62864;BME280;48954;59.950;11.014;2023-07-29T00:32:39;98669.87;;;14.28;77.63
62864;BME280;48954;59.950;11.014;2023-07-29T00:35:05;98667.40;;;14.28;77.56
62864;BME280;48954;59.950;11.014;2023-07-29T00:37:31;98671.67;;;14.29;77.63
62864;BME280;48954;59.950;11.014;2023-07-29T00:39:57;98668.51;;;14.29;77.65
62864;BME280;48954;59.950;11.014;2023-07-29T00:42:23;98668.27;;;14.29;77.71
62864;BME280;48954;59.950;11.014;2023-07-29T00:44:49;98669.55;;;14.28;77.66
62864;BME280;48954;59.950;11.014;2023-07-29T00:47:15;98669.63;;;14.28;77.80
62864;BME280;48954;59.950;11.014;2023-07-29T00:49:43;98662.99;;;14.28;77.68
62864;BME280;48954;59.950;11.014;2023-07-29T00:52:10;98666.23;;;14.29;77.87
62864;BME280;48954;59.950;11.014;2023-07-29T00:54:36;98656.27;;;14.28;77.91
62864;BME280;48954;59.950;11.014;2023-07-29T00:57:01;98656.17;;;14.29;77.92
62864;BME280;48954;59.950;11.014;2023-07-29T00:59:27;98658.38;;;14.30;77.95
62864;BME280;48954;59.950;11.014;2023-07-29T01:01:54;98656.24;;;14.31;77.89
62864;BME280;48954;59.950;11.014;2023-07-29T01:04:19;98657.84;;;14.29;77.99
62864;BME280;48954;59.950;11.014;2023-07-29T01:09:18;98650.13;;;14.27;78.02
62864;BME280;48954;59.950;11.014;2023-07-29T01:12:01;98648.49;;;14.26;78.16
62864;BME280;48954;59.950;11.014;2023-07-29T01:14:39;98646.45;;;14.23;78.16
62864;BME280;48954;59.950;11.014;2023-07-29T01:17:09;98646.48;;;14.21;78.16
62864;BME280;48954;59.950;11.014;2023-07-29T01:20:01;98645.06;;;14.19;78.25
62864;BME280;48954;59.950;11.014;2023-07-29T01:22:28;98643.89;;;14.18;78.34
62864;BME280;48954;59.950;11.014;2023-07-29T01:24:55;98645.13;;;14.15;78.39
62864;BME280;48954;59.950;11.014;2023-07-29T01:27:20;98640.86;;;14.14;78.60
62864;BME280;48954;59.950;11.014;2023-07-29T01:29:46;98641.75;;;14.14;78.57
62864;BME280;48954;59.950;11.014;2023-07-29T01:32:20;98638.83;;;14.14;78.65
62864;BME280;48954;59.950;11.014;2023-07-29T01:34:55;98639.45;;;14.14;78.61
62864;BME280;48954;59.950;11.014;2023-07-29T01:37:26;98640.45;;;14.15;78.61
62864;BME280;48954;59.950;11.014;2023-07-29T01:39:58;98635.55;;;14.15;78.63
62864;BME280;48954;59.950;11.014;2023-07-29T01:42:24;98632.65;;;14.15;78.47
62864;BME280;48954;59.950;11.014;2023-07-29T01:44:51;98630.98;;;14.14;78.54
62864;BME280;48954;59.950;11.014;2023-07-29T01:47:17;98629.96;;;14.14;78.61
62864;BME280;48954;59.950;11.014;2023-07-29T01:49:42;98630.44;;;14.15;78.52
62864;BME280;48954;59.950;11.014;2023-07-29T01:52:08;98627.26;;;14.15;78.54
62864;BME280;48954;59.950;11.014;2023-07-29T01:54:34;98624.24;;;14.15;78.60
62864;BME280;48954;59.950;11.014;2023-07-29T01:57:00;98625.81;;;14.16;78.53
62864;BME280;48954;59.950;11.014;2023-07-29T01:59:26;98626.67;;;14.17;78.57
62864;BME280;48954;59.950;11.014;2023-07-29T02:01:52;98624.30;;;14.17;78.56
62864;BME280;48954;59.950;11.014;2023-07-29T02:04:17;98625.81;;;14.16;78.55
62864;BME280;48954;59.950;11.014;2023-07-29T02:06:43;98627.12;;;14.14;78.39
62864;BME280;48954;59.950;11.014;2023-07-29T02:09:09;98626.58;;;14.13;78.53
62864;BME280;48954;59.950;11.014;2023-07-29T02:11:35;98633.61;;;14.13;78.48
62864;BME280;48954;59.950;11.014;2023-07-29T02:14:00;98625.80;;;14.12;78.47
62864;BME280;48954;59.950;11.014;2023-07-29T02:16:26;98626.98;;;14.11;78.48
62864;BME280;48954;59.950;11.014;2023-07-29T02:18:52;98625.56;;;14.11;78.51
62864;BME280;48954;59.950;11.014;2023-07-29T02:21:19;98622.25;;;14.11;78.53
62864;BME280;48954;59.950;11.014;2023-07-29T02:23:44;98622.32;;;14.12;78.62
62864;BME280;48954;59.950;11.014;2023-07-29T02:26:10;98623.73;;;14.12;78.66
62864;BME280;48954;59.950;11.014;2023-07-29T02:28:36;98623.34;;;14.12;78.55
62864;BME280;48954;59.950;11.014;2023-07-29T02:31:16;98622.72;;;14.11;78.43
62864;BME280;48954;59.950;11.014;2023-07-29T02:33:43;98620.11;;;14.11;78.45
62864;BME280;48954;59.950;11.014;2023-07-29T02:36:11;98617.98;;;14.11;78.53
62864;BME280;48954;59.950;11.014;2023-07-29T02:38:37;98622.33;;;14.11;78.45
62864;BME280;48954;59.950;11.014;2023-07-29T02:41:03;98622.88;;;14.12;78.52
62864;BME280;48954;59.950;11.014;2023-07-29T02:43:29;98618.45;;;14.11;78.40
62864;BME280;48954;59.950;11.014;2023-07-29T02:45:55;98620.90;;;14.11;78.33
62864;BME280;48954;59.950;11.014;2023-07-29T02:48:20;98621.14;;;14.11;78.52
62864;BME280;48954;59.950;11.014;2023-07-29T02:50:46;98623.81;;;14.12;78.47
62864;BME280;48954;59.950;11.014;2023-07-29T02:53:12;98621.93;;;14.11;78.42
62864;BME280;48954;59.950;11.014;2023-07-29T02:55:41;98622.88;;;14.11;78.40
62864;BME280;48954;59.950;11.014;2023-07-29T02:58:07;98625.09;;;14.10;78.41
62864;BME280;48954;59.950;11.014;2023-07-29T03:00:33;98624.64;;;14.09;78.27
62864;BME280;48954;59.950;11.014;2023-07-29T03:02:59;98628.74;;;14.08;78.36
62864;BME280;48954;59.950;11.014;2023-07-29T03:05:28;98626.30;;;14.08;78.43
62864;BME280;48954;59.950;11.014;2023-07-29T03:07:54;98626.53;;;14.08;78.41
62864;BME280;48954;59.950;11.014;2023-07-29T03:10:20;98627.96;;;14.07;78.40
62864;BME280;48954;59.950;11.014;2023-07-29T03:12:46;98626.38;;;14.07;78.43
62864;BME280;48954;59.950;11.014;2023-07-29T03:15:12;98626.86;;;14.06;78.46
62864;BME280;48954;59.950;11.014;2023-07-29T03:17:38;98627.82;;;14.05;78.35
62864;BME280;48954;59.950;11.014;2023-07-29T03:20:04;98623.65;;;14.03;78.34
62864;BME280;48954;59.950;11.014;2023-07-29T03:22:30;98623.05;;;14.02;78.33
62864;BME280;48954;59.950;11.014;2023-07-29T03:24:56;98624.95;;;14.01;78.39
62864;BME280;48954;59.950;11.014;2023-07-29T03:27:22;98621.50;;;13.99;78.35
62864;BME280;48954;59.950;11.014;2023-07-29T03:29:47;98620.50;;;13.95;78.27
62864;BME280;48954;59.950;11.014;2023-07-29T03:32:13;98620.45;;;13.90;78.27
62864;BME280;48954;59.950;11.014;2023-07-29T03:34:39;98624.99;;;13.88;78.42
62864;BME280;48954;59.950;11.014;2023-07-29T03:37:05;98624.05;;;13.86;78.41
62864;BME280;48954;59.950;11.014;2023-07-29T03:39:30;98625.27;;;13.84;78.38
62864;BME280;48954;59.950;11.014;2023-07-29T03:41:56;98625.91;;;13.82;78.41
62864;BME280;48954;59.950;11.014;2023-07-29T03:44:22;98626.15;;;13.81;78.46
62864;BME280;48954;59.950;11.014;2023-07-29T03:46:48;98630.42;;;13.80;78.42
62864;BME280;48954;59.950;11.014;2023-07-29T03:49:14;98627.73;;;13.78;78.52
62864;BME280;48954;59.950;11.014;2023-07-29T03:51:39;98624.67;;;13.77;78.50
62864;BME280;48954;59.950;11.014;2023-07-29T03:54:06;98623.80;;;13.77;78.51
62864;BME280;48954;59.950;11.014;2023-07-29T03:56:32;98623.95;;;13.78;78.49
62864;BME280;48954;59.950;11.014;2023-07-29T03:59:04;98624.15;;;13.75;78.46
62864;BME280;48954;59.950;11.014;2023-07-29T04:01:31;98618.41;;;13.74;78.50
62864;BME280;48954;59.950;11.014;2023-07-29T04:03:58;98620.70;;;13.72;78.52
62864;BME280;48954;59.950;11.014;2023-07-29T04:06:25;98618.98;;;13.70;78.50
62864;BME280;48954;59.950;11.014;2023-07-29T04:08:51;98619.45;;;13.70;78.54
62864;BME280;48954;59.950;11.014;2023-07-29T04:11:17;98616.94;;;13.69;78.66
62864;BME280;48954;59.950;11.014;2023-07-29T04:13:42;98614.41;;;13.69;78.68
62864;BME280;48954;59.950;11.014;2023-07-29T04:16:08;98616.31;;;13.68;78.53
62864;BME280;48954;59.950;11.014;2023-07-29T04:18:34;98613.95;;;13.68;78.60
62864;BME280;48954;59.950;11.014;2023-07-29T04:21:00;98613.40;;;13.66;78.57
62864;BME280;48954;59.950;11.014;2023-07-29T04:23:26;98614.55;;;13.63;78.47
62864;BME280;48954;59.950;11.014;2023-07-29T04:25:51;98614.19;;;13.59;78.63
62864;BME280;48954;59.950;11.014;2023-07-29T04:28:17;98617.19;;;13.58;78.84
62864;BME280;48954;59.950;11.014;2023-07-29T04:30:43;98614.83;;;13.58;78.83
62864;BME280;48954;59.950;11.014;2023-07-29T04:33:09;98614.82;;;13.57;78.87
62864;BME280;48954;59.950;11.014;2023-07-29T04:35:34;98611.50;;;13.58;78.89
62864;BME280;48954;59.950;11.014;2023-07-29T04:38:00;98606.05;;;13.57;78.97
62864;BME280;48954;59.950;11.014;2023-07-29T04:40:26;98604.88;;;13.56;78.99
62864;BME280;48954;59.950;11.014;2023-07-29T04:42:52;98607.02;;;13.55;78.89
62864;BME280;48954;59.950;11.014;2023-07-29T04:45:17;98605.05;;;13.54;79.09
62864;BME280;48954;59.950;11.014;2023-07-29T04:47:43;98602.68;;;13.55;79.04
62864;BME280;48954;59.950;11.014;2023-07-29T04:50:09;98606.22;;;13.56;79.16
62864;BME280;48954;59.950;11.014;2023-07-29T04:52:35;98609.61;;;13.58;79.26
62864;BME280;48954;59.950;11.014;2023-07-29T04:55:01;98613.86;;;13.60;79.28
62864;BME280;48954;59.950;11.014;2023-07-29T04:57:27;98613.94;;;13.61;79.21
62864;BME280;48954;59.950;11.014;2023-07-29T04:59:52;98613.93;;;13.61;79.23
62864;BME280;48954;59.950;11.014;2023-07-29T05:02:18;98612.75;;;13.62;79.33
62864;BME280;48954;59.950;11.014;2023-07-29T05:04:44;98606.90;;;13.62;79.28
62864;BME280;48954;59.950;11.014;2023-07-29T05:07:10;98608.14;;;13.64;79.25
62864;BME280;48954;59.950;11.014;2023-07-29T05:09:35;98609.77;;;13.65;79.38
62864;BME280;48954;59.950;11.014;2023-07-29T05:12:01;98610.47;;;13.68;79.39
62864;BME280;48954;59.950;11.014;2023-07-29T05:14:27;98609.84;;;13.68;79.28
62864;BME280;48954;59.950;11.014;2023-07-29T05:16:53;98608.67;;;13.67;79.13
62864;BME280;48954;59.950;11.014;2023-07-29T05:19:19;98611.90;;;13.66;79.01
62864;BME280;48954;59.950;11.014;2023-07-29T05:21:44;98612.38;;;13.66;79.04
62864;BME280;48954;59.950;11.014;2023-07-29T05:24:10;98613.79;;;13.67;79.15
62864;BME280;48954;59.950;11.014;2023-07-29T05:26:36;98612.84;;;13.68;79.12
62864;BME280;48954;59.950;11.014;2023-07-29T05:29:02;98611.19;;;13.68;79.09
62864;BME280;48954;59.950;11.014;2023-07-29T05:31:27;98615.83;;;13.69;79.07
62864;BME280;48954;59.950;11.014;2023-07-29T05:33:53;98620.08;;;13.72;79.15
62864;BME280;48954;59.950;11.014;2023-07-29T05:36:19;98616.82;;;13.75;79.16
62864;BME280;48954;59.950;11.014;2023-07-29T05:38:45;98619.63;;;13.78;79.21
62864;BME280;48954;59.950;11.014;2023-07-29T05:41:10;98621.80;;;13.81;79.25
62864;BME280;48954;59.950;11.014;2023-07-29T05:43:37;98625.66;;;13.84;79.22
62864;BME280;48954;59.950;11.014;2023-07-29T05:46:02;98626.29;;;13.85;79.03
62864;BME280;48954;59.950;11.014;2023-07-29T05:48:28;98627.61;;;13.87;79.10
62864;BME280;48954;59.950;11.014;2023-07-29T05:50:54;98628.32;;;13.87;78.88
62864;BME280;48954;59.950;11.014;2023-07-29T05:53:24;98623.33;;;13.89;78.81
62864;BME280;48954;59.950;11.014;2023-07-29T05:55:49;98619.28;;;13.90;78.84
62864;BME280;48954;59.950;11.014;2023-07-29T05:58:15;98623.52;;;13.92;78.86
62864;BME280;48954;59.950;11.014;2023-07-29T06:00:41;98625.94;;;13.95;78.93
62864;BME280;48954;59.950;11.014;2023-07-29T06:03:07;98629.02;;;13.96;78.77
62864;BME280;48954;59.950;11.014;2023-07-29T06:05:33;98629.10;;;13.97;78.83
62864;BME280;48954;59.950;11.014;2023-07-29T06:07:59;98627.34;;;13.99;78.83
62864;BME280;48954;59.950;11.014;2023-07-29T06:10:25;98626.90;;;14.02;78.87
62864;BME280;48954;59.950;11.014;2023-07-29T06:12:50;98626.40;;;14.05;78.67
62864;BME280;48954;59.950;11.014;2023-07-29T06:15:16;98624.66;;;14.05;78.66
62864;BME280;48954;59.950;11.014;2023-07-29T06:17:42;98628.11;;;14.08;78.68
62864;BME280;48954;59.950;11.014;2023-07-29T06:20:08;98623.91;;;14.11;78.45
62864;BME280;48954;59.950;11.014;2023-07-29T06:22:34;98623.58;;;14.12;78.53
62864;BME280;48954;59.950;11.014;2023-07-29T06:25:00;98619.37;;;14.15;78.59
62864;BME280;48954;59.950;11.014;2023-07-29T06:27:26;98621.08;;;14.16;78.55
62864;BME280;48954;59.950;11.014;2023-07-29T06:29:52;98623.42;;;14.19;78.52
62864;BME280;48954;59.950;11.014;2023-07-29T06:32:18;98625.85;;;14.20;78.52
62864;BME280;48954;59.950;11.014;2023-07-29T06:34:43;98627.81;;;14.23;78.57
62864;BME280;48954;59.950;11.014;2023-07-29T06:37:09;98629.53;;;14.25;78.42
62864;BME280;48954;59.950;11.014;2023-07-29T06:39:35;98625.05;;;14.29;78.42
62864;BME280;48954;59.950;11.014;2023-07-29T06:42:01;98628.95;;;14.36;78.40
62864;BME280;48954;59.950;11.014;2023-07-29T06:44:27;98626.51;;;14.44;78.35
62864;BME280;48954;59.950;11.014;2023-07-29T06:46:53;98625.58;;;14.50;78.07
62864;BME280;48954;59.950;11.014;2023-07-29T06:49:19;98631.81;;;14.56;78.22
62864;BME280;48954;59.950;11.014;2023-07-29T06:51:44;98630.02;;;14.63;78.05
62864;BME280;48954;59.950;11.014;2023-07-29T06:54:10;98628.39;;;14.72;78.09
62864;BME280;48954;59.950;11.014;2023-07-29T06:56:36;98622.30;;;14.79;78.06
62864;BME280;48954;59.950;11.014;2023-07-29T06:59:02;98623.31;;;14.86;77.96
62864;BME280;48954;59.950;11.014;2023-07-29T07:01:28;98621.06;;;14.94;77.89
62864;BME280;48954;59.950;11.014;2023-07-29T07:03:53;98625.70;;;15.03;77.69
62864;BME280;48954;59.950;11.014;2023-07-29T07:06:21;98626.13;;;15.12;77.60
62864;BME280;48954;59.950;11.014;2023-07-29T07:08:47;98628.65;;;15.19;77.24
62864;BME280;48954;59.950;11.014;2023-07-29T07:11:13;98630.33;;;15.22;77.17
62864;BME280;48954;59.950;11.014;2023-07-29T07:13:39;98629.64;;;15.27;77.11
62864;BME280;48954;59.950;11.014;2023-07-29T07:16:06;98630.11;;;15.38;76.98
62864;BME280;48954;59.950;11.014;2023-07-29T07:18:33;98633.99;;;15.48;76.90
62864;BME280;48954;59.950;11.014;2023-07-29T07:20:59;98630.52;;;15.54;76.59
62864;BME280;48954;59.950;11.014;2023-07-29T07:23:25;98632.67;;;15.58;76.06
62864;BME280;48954;59.950;11.014;2023-07-29T07:25:51;98627.75;;;15.59;75.75
62864;BME280;48954;59.950;11.014;2023-07-29T07:28:17;98628.01;;;15.63;75.84
62864;BME280;48954;59.950;11.014;2023-07-29T07:30:43;98626.09;;;15.69;75.86
62864;BME280;48954;59.950;11.014;2023-07-29T07:33:09;98626.48;;;15.75;75.62
62864;BME280;48954;59.950;11.014;2023-07-29T07:35:35;98626.36;;;15.77;75.26
62864;BME280;48954;59.950;11.014;2023-07-29T07:38:01;98629.01;;;15.80;75.21
62864;BME280;48954;59.950;11.014;2023-07-29T07:40:27;98630.00;;;15.83;74.89
62864;BME280;48954;59.950;11.014;2023-07-29T07:42:53;98635.50;;;15.85;74.79
62864;BME280;48954;59.950;11.014;2023-07-29T07:45:19;98633.10;;;15.85;74.41
62864;BME280;48954;59.950;11.014;2023-07-29T07:47:45;98633.20;;;15.84;74.27
62864;BME280;48954;59.950;11.014;2023-07-29T07:50:11;98633.34;;;15.85;74.17
62864;BME280;48954;59.950;11.014;2023-07-29T07:52:38;98634.81;;;15.87;74.12
62864;BME280;48954;59.950;11.014;2023-07-29T07:55:04;98629.20;;;15.91;74.20
62864;BME280;48954;59.950;11.014;2023-07-29T07:57:31;98627.60;;;15.98;73.98
62864;BME280;48954;59.950;11.014;2023-07-29T07:59:57;98631.63;;;16.07;73.92
62864;BME280;48954;59.950;11.014;2023-07-29T08:02:23;98625.54;;;16.16;73.91
62864;BME280;48954;59.950;11.014;2023-07-29T08:04:49;98627.09;;;16.30;73.70
62864;BME280;48954;59.950;11.014;2023-07-29T08:07:14;98626.02;;;16.40;73.49
62864;BME280;48954;59.950;11.014;2023-07-29T08:09:46;98620.02;;;16.44;73.26
62864;BME280;48954;59.950;11.014;2023-07-29T08:12:12;98620.42;;;16.51;73.11
62864;BME280;48954;59.950;11.014;2023-07-29T08:14:37;98621.89;;;16.62;73.05
62864;BME280;48954;59.950;11.014;2023-07-29T08:17:04;98623.70;;;16.72;72.80
62864;BME280;48954;59.950;11.014;2023-07-29T08:19:29;98622.73;;;16.75;72.47
62864;BME280;48954;59.950;11.014;2023-07-29T08:21:57;98622.66;;;16.79;72.43
62864;BME280;48954;59.950;11.014;2023-07-29T08:24:24;98618.92;;;16.79;72.14
62864;BME280;48954;59.950;11.014;2023-07-29T08:26:50;98619.16;;;16.80;72.04
62864;BME280;48954;59.950;11.014;2023-07-29T08:29:15;98619.70;;;16.80;71.92
62864;BME280;48954;59.950;11.014;2023-07-29T08:31:41;98617.41;;;16.80;71.81
62864;BME280;48954;59.950;11.014;2023-07-29T08:34:07;98624.95;;;16.79;71.85
62864;BME280;48954;59.950;11.014;2023-07-29T08:36:33;98621.70;;;16.80;71.62
62864;BME280;48954;59.950;11.014;2023-07-29T08:38:59;98623.98;;;16.76;71.46
62864;BME280;48954;59.950;11.014;2023-07-29T08:41:26;98624.23;;;16.76;71.47
62864;BME280;48954;59.950;11.014;2023-07-29T08:44:01;98624.05;;;16.77;71.54
62864;BME280;48954;59.950;11.014;2023-07-29T08:46:28;98622.29;;;16.78;71.42
62864;BME280;48954;59.950;11.014;2023-07-29T08:48:54;98618.05;;;16.84;71.74
62864;BME280;48954;59.950;11.014;2023-07-29T08:51:21;98622.02;;;16.90;71.84
62864;BME280;48954;59.950;11.014;2023-07-29T08:53:47;98617.87;;;16.96;71.58
62864;BME280;48954;59.950;11.014;2023-07-29T08:56:15;98614.32;;;17.02;71.55
62864;BME280;48954;59.950;11.014;2023-07-29T08:58:41;98613.16;;;17.08;71.45
62864;BME280;48954;59.950;11.014;2023-07-29T09:01:07;98612.84;;;17.13;71.20
62864;BME280;48954;59.950;11.014;2023-07-29T09:03:33;98605.59;;;17.13;71.10
62864;BME280;48954;59.950;11.014;2023-07-29T09:06:02;98605.89;;;17.13;70.98
62864;BME280;48954;59.950;11.014;2023-07-29T09:08:28;98605.39;;;17.14;71.17
62864;BME280;48954;59.950;11.014;2023-07-29T09:10:55;98600.00;;;17.18;71.27
62864;BME280;48954;59.950;11.014;2023-07-29T09:13:21;98594.83;;;17.22;71.43
62864;BME280;48954;59.950;11.014;2023-07-29T09:15:47;98592.23;;;17.27;71.43
62864;BME280;48954;59.950;11.014;2023-07-29T09:18:18;98592.71;;;17.35;71.64
62864;BME280;48954;59.950;11.014;2023-07-29T09:20:49;98593.99;;;17.38;71.45
62864;BME280;48954;59.950;11.014;2023-07-29T09:23:19;98595.65;;;17.41;71.26
62864;BME280;48954;59.950;11.014;2023-07-29T09:25:47;98592.42;;;17.46;71.30
62864;BME280;48954;59.950;11.014;2023-07-29T09:28:15;98594.19;;;17.59;71.32
62864;BME280;48954;59.950;11.014;2023-07-29T09:30:44;98596.72;;;17.67;70.99
62864;BME280;48954;59.950;11.014;2023-07-29T09:33:10;98600.45;;;17.74;70.97
62864;BME280;48954;59.950;11.014;2023-07-29T09:35:37;98598.56;;;17.79;70.89
62864;BME280;48954;59.950;11.014;2023-07-29T09:38:07;98605.14;;;17.83;70.71
62864;BME280;48954;59.950;11.014;2023-07-29T09:40:37;98601.85;;;17.94;70.71
62864;BME280;48954;59.950;11.014;2023-07-29T09:43:09;98604.85;;;18.16;70.80
62864;BME280;48954;59.950;11.014;2023-07-29T09:45:36;98604.91;;;18.34;70.82
62864;BME280;48954;59.950;11.014;2023-07-29T09:48:04;98601.80;;;18.43;70.49
62864;BME280;48954;59.950;11.014;2023-07-29T09:50:30;98602.34;;;18.47;69.86
62864;BME280;48954;59.950;11.014;2023-07-29T09:52:56;98606.17;;;18.46;69.73
62864;BME280;48954;59.950;11.014;2023-07-29T09:55:23;98602.73;;;18.47;69.77
62864;BME280;48954;59.950;11.014;2023-07-29T09:57:56;98600.98;;;18.50;69.57
62864;BME280;48954;59.950;11.014;2023-07-29T10:00:23;98600.27;;;18.53;69.59
62864;BME280;48954;59.950;11.014;2023-07-29T10:02:49;98597.74;;;18.55;69.48
62864;BME280;48954;59.950;11.014;2023-07-29T10:05:16;98593.02;;;18.63;69.59
62864;BME280;48954;59.950;11.014;2023-07-29T10:07:42;98590.27;;;18.78;69.66
62864;BME280;48954;59.950;11.014;2023-07-29T10:10:08;98587.52;;;18.92;69.51
62864;BME280;48954;59.950;11.014;2023-07-29T10:12:35;98573.54;;;19.02;69.06
62864;BME280;48954;59.950;11.014;2023-07-29T10:15:05;98574.59;;;19.12;69.44
62864;BME280;48954;59.950;11.014;2023-07-29T10:17:36;98571.49;;;19.27;69.27
62864;BME280;48954;59.950;11.014;2023-07-29T10:20:08;98571.16;;;19.38;68.98
62864;BME280;48954;59.950;11.014;2023-07-29T10:22:39;98565.61;;;19.44;68.36
62864;BME280;48954;59.950;11.014;2023-07-29T10:25:10;98566.89;;;19.52;68.25
62864;BME280;48954;59.950;11.014;2023-07-29T10:27:52;98569.22;;;19.59;67.89
62864;BME280;48954;59.950;11.014;2023-07-29T10:30:19;98571.41;;;19.72;67.80
62864;BME280;48954;59.950;11.014;2023-07-29T10:32:45;98566.13;;;19.83;67.57
62864;BME280;48954;59.950;11.014;2023-07-29T10:35:12;98564.31;;;19.88;67.31
62864;BME280;48954;59.950;11.014;2023-07-29T10:37:39;98563.73;;;19.99;67.35
62864;BME280;48954;59.950;11.014;2023-07-29T10:40:08;98561.98;;;20.08;66.50
62864;BME280;48954;59.950;11.014;2023-07-29T10:42:35;98560.42;;;20.14;66.14
62864;BME280;48954;59.950;11.014;2023-07-29T10:45:17;98559.63;;;20.21;66.53
62864;BME280;48954;59.950;11.014;2023-07-29T10:47:49;98556.75;;;20.29;66.07
62864;BME280;48954;59.950;11.014;2023-07-29T10:50:25;98560.66;;;20.31;65.81
62864;BME280;48954;59.950;11.014;2023-07-29T10:52:56;98562.00;;;20.34;65.46
62864;BME280;48954;59.950;11.014;2023-07-29T10:55:33;98560.33;;;20.32;65.18
62864;BME280;48954;59.950;11.014;2023-07-29T10:58:20;98561.29;;;20.29;65.09
62864;BME280;48954;59.950;11.014;2023-07-29T11:00:46;98559.98;;;20.28;65.24
62864;BME280;48954;59.950;11.014;2023-07-29T11:03:13;98554.88;;;20.24;65.03
62864;BME280;48954;59.950;11.014;2023-07-29T11:05:47;98554.59;;;20.25;65.04
62864;BME280;48954;59.950;11.014;2023-07-29T11:08:26;98552.36;;;20.27;64.68
62864;BME280;48954;59.950;11.014;2023-07-29T11:13:31;98544.70;;;20.50;65.06
62864;BME280;48954;59.950;11.014;2023-07-29T11:15:58;98532.04;;;20.60;64.82
62864;BME280;48954;59.950;11.014;2023-07-29T11:18:31;98531.48;;;20.70;64.66
62864;BME280;48954;59.950;11.014;2023-07-29T11:20:58;98534.06;;;20.80;64.41
62864;BME280;48954;59.950;11.014;2023-07-29T11:23:34;98529.17;;;20.87;64.46
62864;BME280;48954;59.950;11.014;2023-07-29T11:26:02;98529.09;;;20.93;64.00
62864;BME280;48954;59.950;11.014;2023-07-29T11:28:28;98528.46;;;20.97;63.76
62864;BME280;48954;59.950;11.014;2023-07-29T11:30:56;98520.65;;;20.99;63.62
62864;BME280;48954;59.950;11.014;2023-07-29T11:33:24;98519.45;;;21.04;63.51
62864;BME280;48954;59.950;11.014;2023-07-29T11:35:51;98516.89;;;21.15;63.44
62864;BME280;48954;59.950;11.014;2023-07-29T11:38:22;98524.31;;;21.24;63.00
62864;BME280;48954;59.950;11.014;2023-07-29T11:41:01;98522.98;;;21.29;62.60
62864;BME280;48954;59.950;11.014;2023-07-29T11:43:27;98521.90;;;21.36;62.18
62864;BME280;48954;59.950;11.014;2023-07-29T11:45:53;98521.52;;;21.43;61.93
62864;BME280;48954;59.950;11.014;2023-07-29T11:48:31;98522.04;;;21.50;61.55
62864;BME280;48954;59.950;11.014;2023-07-29T11:50:57;98521.57;;;21.56;61.52
62864;BME280;48954;59.950;11.014;2023-07-29T11:53:27;98520.79;;;21.63;61.48
62864;BME280;48954;59.950;11.014;2023-07-29T11:55:55;98517.84;;;21.72;60.91
62864;BME280;48954;59.950;11.014;2023-07-29T11:58:23;98508.77;;;21.79;60.62
62864;BME280;48954;59.950;11.014;2023-07-29T12:00:51;98509.84;;;21.87;60.91
62864;BME280;48954;59.950;11.014;2023-07-29T12:03:17;98508.85;;;21.97;60.37
62864;BME280;48954;59.950;11.014;2023-07-29T12:05:43;98505.55;;;22.05;60.35
62864;BME280;48954;59.950;11.014;2023-07-29T12:08:10;98498.91;;;22.18;59.99
62864;BME280;48954;59.950;11.014;2023-07-29T12:10:38;98497.32;;;22.29;59.88
62864;BME280;48954;59.950;11.014;2023-07-29T12:13:04;98489.77;;;22.36;59.49
62864;BME280;48954;59.950;11.014;2023-07-29T12:15:30;98493.30;;;22.36;59.13
62864;BME280;48954;59.950;11.014;2023-07-29T12:17:57;98499.61;;;22.33;58.63
62864;BME280;48954;59.950;11.014;2023-07-29T12:20:24;98496.72;;;22.28;57.81
62864;BME280;48954;59.950;11.014;2023-07-29T12:22:54;98495.61;;;22.20;57.84
62864;BME280;48954;59.950;11.014;2023-07-29T12:25:21;98498.01;;;22.21;57.70
62864;BME280;48954;59.950;11.014;2023-07-29T12:27:47;98498.11;;;22.11;57.59
62864;BME280;48954;59.950;11.014;2023-07-29T12:30:13;98495.77;;;22.07;56.21
62864;BME280;48954;59.950;11.014;2023-07-29T12:32:46;98496.39;;;22.06;54.29
62864;BME280;48954;59.950;11.014;2023-07-29T12:35:12;98490.10;;;22.06;53.79
62864;BME280;48954;59.950;11.014;2023-07-29T12:37:44;98487.96;;;22.14;53.05
62864;BME280;48954;59.950;11.014;2023-07-29T12:42:48;98487.41;;;22.49;52.54
62864;BME280;48954;59.950;11.014;2023-07-29T12:45:15;98486.38;;;22.66;51.79
62864;BME280;48954;59.950;11.014;2023-07-29T12:47:41;98489.00;;;22.75;51.28
62864;BME280;48954;59.950;11.014;2023-07-29T12:50:07;98491.58;;;22.89;50.93
62864;BME280;48954;59.950;11.014;2023-07-29T12:52:33;98489.39;;;22.95;50.61
62864;BME280;48954;59.950;11.014;2023-07-29T12:54:59;98489.30;;;22.97;50.52
62864;BME280;48954;59.950;11.014;2023-07-29T12:57:25;98490.70;;;22.99;50.61